Time;durP1;ratioP1;P1;durP2;ratioP2;P2;SDS_P1;SDS_P2;PMS_P1;PMS_P2;Temp;Humidity;BMP_temperature;BMP_pressure;BME280_temperature;BME280_humidity;BME280_pressure;Samples;Min_cycle;Max_cycle;Signal;HPM_P1;HPM_P2
2022/01/05 00:02:15;;;;;;;11.93;2.13;;;;;;;2.75;83.92;100058.81;5060594;28;20036;-60
2022/01/05 00:04:40;;;;;;;12.10;2.20;;;;;;;2.72;83.78;100066.13;5060383;28;20024;-60
2022/01/05 00:07:07;;;;;;;14.47;2.10;;;;;;;2.66;83.92;100067.50;5060003;28;20036;-60
2022/01/05 00:09:32;;;;;;;10.40;2.10;;;;;;;2.59;83.60;100070.81;5055838;28;20043;-60
2022/01/05 00:11:58;;;;;;;11.30;1.80;;;;;;;2.55;83.76;100070.25;5064913;28;20033;-60
2022/01/05 00:14:23;;;;;;;11.83;2.40;;;;;;;2.52;83.67;100072.31;5059859;28;20028;-60
2022/01/05 00:16:48;;;;;;;15.97;2.30;;;;;;;2.52;83.55;100062.66;5059355;28;20492;-60
2022/01/05 00:19:14;;;;;;;14.83;2.60;;;;;;;2.50;83.83;100069.84;5055912;28;20398;-60
2022/01/05 00:21:40;;;;;;;16.37;2.40;;;;;;;2.49;83.87;100065.56;5035950;28;20029;-60
2022/01/05 00:24:07;;;;;;;12.00;2.90;;;;;;;2.43;83.69;100064.34;5059903;28;20047;-60
2022/01/05 00:26:32;;;;;;;12.70;2.33;;;;;;;2.42;83.75;100065.31;5060341;28;20024;-60
2022/01/05 00:28:58;;;;;;;16.83;2.30;;;;;;;2.38;83.82;100063.09;5056333;28;20020;-60
2022/01/05 00:31:24;;;;;;;18.00;2.53;;;;;;;2.32;83.94;100068.88;5061007;28;20029;-60
2022/01/05 00:33:50;;;;;;;19.73;2.73;;;;;;;2.31;84.07;100072.44;5066552;28;20101;-60
2022/01/05 00:36:15;;;;;;;14.17;2.50;;;;;;;2.32;83.92;100077.56;5062632;28;20036;-60
2022/01/05 00:38:41;;;;;;;12.77;2.37;;;;;;;2.31;83.76;100078.50;5061069;28;20028;-60
2022/01/05 00:41:06;;;;;;;12.50;2.37;;;;;;;2.26;84.13;100077.28;5058164;28;20106;-60
2022/01/05 00:43:31;;;;;;;14.83;2.27;;;;;;;2.23;83.87;100077.53;5055779;28;20024;-60
2022/01/05 00:45:57;;;;;;;14.97;2.67;;;;;;;2.21;84.12;100085.53;5056445;28;20039;-59
2022/01/05 00:48:22;;;;;;;13.57;2.60;;;;;;;2.23;83.90;100088.84;5060116;28;20024;-60
2022/01/05 00:50:48;;;;;;;14.97;2.40;;;;;;;2.26;83.80;100088.56;5059538;28;20032;-60
2022/01/05 00:53:13;;;;;;;10.70;2.70;;;;;;;2.28;83.79;100093.69;5063462;28;20035;-60
2022/01/05 00:55:38;;;;;;;13.17;2.73;;;;;;;2.29;83.81;100095.31;5056813;28;20028;-60
2022/01/05 00:58:04;;;;;;;13.27;2.57;;;;;;;2.30;83.69;100091.75;5057626;28;20096;-59
2022/01/05 01:00:29;;;;;;;13.17;2.60;;;;;;;2.29;83.29;100093.53;5058884;28;20025;-60
2022/01/05 01:02:54;;;;;;;10.70;2.67;;;;;;;2.29;83.53;100090.91;5052440;28;20060;-60
2022/01/05 01:05:20;;;;;;;13.00;2.43;;;;;;;2.26;83.35;100101.66;5060960;28;20043;-59
2022/01/05 01:07:46;;;;;;;14.77;2.60;;;;;;;2.22;83.17;100100.28;5059939;28;20025;-60
2022/01/05 01:10:12;;;;;;;10.70;2.33;;;;;;;2.18;83.37;100099.72;5057689;28;20108;-60
2022/01/05 01:12:37;;;;;;;13.27;2.50;;;;;;;2.15;83.29;100096.56;5053909;28;20420;-60
2022/01/05 01:15:05;;;;;;;16.63;2.77;;;;;;;2.11;83.21;100106.47;5057569;28;20114;-59
2022/01/05 01:17:30;;;;;;;17.83;3.10;;;;;;;2.13;83.07;100112.41;5053600;28;20111;-60
2022/01/05 01:19:55;;;;;;;10.13;2.30;;;;;;;2.16;83.01;100109.53;5055915;28;20033;-59
2022/01/05 01:22:21;;;;;;;13.13;2.70;;;;;;;2.14;82.93;100108.84;5054880;28;20479;-59
2022/01/05 01:24:46;;;;;;;14.70;2.83;;;;;;;2.08;82.84;100125.09;5059020;28;20024;-59
2022/01/05 01:27:11;;;;;;;12.20;2.17;;;;;;;2.08;82.79;100126.88;5059232;28;20420;-60
2022/01/05 01:29:37;;;;;;;12.80;2.80;;;;;;;2.03;83.06;100111.56;5061395;28;20035;-60
2022/01/05 01:32:04;;;;;;;18.57;3.20;;;;;;;1.98;82.96;100128.63;5059176;28;20127;-60
2022/01/05 01:34:29;;;;;;;15.10;2.87;;;;;;;1.94;82.85;100119.38;5060154;28;20398;-59
2022/01/05 01:36:55;;;;;;;11.03;2.80;;;;;;;1.94;83.04;100122.00;5060470;28;20111;-60
2022/01/05 01:39:20;;;;;;;16.00;3.00;;;;;;;1.89;83.00;100117.16;5059673;28;20033;-60
2022/01/05 01:41:45;;;;;;;13.20;2.77;;;;;;;1.83;82.93;100115.09;5052803;28;20500;-60
2022/01/05 01:44:10;;;;;;;12.80;2.70;;;;;;;1.81;83.04;100122.25;5055764;28;20043;-60
2022/01/05 01:46:36;;;;;;;10.50;2.63;;;;;;;1.81;83.10;100115.22;5058524;28;20048;-60
2022/01/05 01:49:01;;;;;;;17.50;2.90;;;;;;;1.79;83.01;100121.53;5060029;28;20050;-60
2022/01/05 01:51:27;;;;;;;10.70;2.90;;;;;;;1.77;83.02;100120.84;5063523;28;20459;-59
2022/01/05 01:53:52;;;;;;;10.80;2.90;;;;;;;1.73;83.01;100124.66;5055042;28;20028;-60
2022/01/05 01:56:19;;;;;;;15.53;3.10;;;;;;;1.73;83.04;100119.44;5055718;28;20027;-60
2022/01/05 01:58:48;;;;;;;12.83;2.60;;;;;;;1.74;82.91;100124.56;5055996;28;20484;-60
2022/01/05 02:01:14;;;;;;;15.18;3.05;;;;;;;1.73;82.65;100127.28;5059155;28;20044;-60
2022/01/05 02:03:39;;;;;;;11.50;2.80;;;;;;;1.72;82.87;100123.00;5059313;28;20566;-60
2022/01/05 02:06:04;;;;;;;14.93;2.93;;;;;;;1.71;82.78;100116.94;5060184;28;20103;-60
2022/01/05 02:08:30;;;;;;;13.77;3.30;;;;;;;1.67;82.65;100120.78;5053368;28;20100;-59
2022/01/05 02:10:55;;;;;;;12.27;2.90;;;;;;;1.66;82.63;100115.69;5059278;28;20031;-59
2022/01/05 02:13:20;;;;;;;11.53;2.50;;;;;;;1.60;82.81;100114.44;5063027;28;20037;-60
2022/01/05 02:15:46;;;;;;;14.40;3.30;;;;;;;1.59;82.69;100114.56;5055424;28;20479;-60
2022/01/05 02:18:58;;;;;;;14.27;2.67;;;;;;;1.57;82.75;100121.72;5055038;28;20496;-60
2022/01/05 02:21:09;;;;;;;17.30;2.87;;;;;;;1.52;82.74;100117.69;5060262;28;20039;-60
2022/01/05 02:23:35;;;;;;;12.63;2.72;;;;;;;1.55;82.84;100117.44;5035067;28;20021;-59
2022/01/05 02:26:02;;;;;;;17.77;2.83;;;;;;;1.55;82.88;100124.47;5060362;28;20020;-59
2022/01/05 02:28:28;;;;;;;13.50;2.80;;;;;;;1.52;82.85;100127.34;5049636;28;20052;-60
2022/01/05 02:30:53;;;;;;;17.70;3.10;;;;;;;1.50;82.75;100124.84;5056656;28;20066;-60
2022/01/05 02:33:23;;;;;;;12.93;2.67;;;;;;;1.48;82.78;100128.56;5060632;28;20029;-60
2022/01/05 02:35:48;;;;;;;15.98;2.90;;;;;;;1.47;82.73;100129.53;5055366;28;20025;-59
2022/01/05 02:38:20;;;;;;;13.10;3.20;;;;;;;1.47;82.96;100134.75;5053677;28;20092;-59
2022/01/05 02:40:46;;;;;;;10.47;2.57;;;;;;;1.46;82.82;100133.94;5058272;28;20021;-59
2022/01/05 02:43:12;;;;;;;18.00;2.97;;;;;;;1.45;82.70;100126.22;5058024;28;20063;-60
2022/01/05 02:45:37;;;;;;;14.33;3.00;;;;;;;1.45;82.78;100137.50;5063035;28;20086;-59
2022/01/05 02:48:04;;;;;;;12.93;2.83;;;;;;;1.44;82.64;100129.75;5054284;28;20079;-59
2022/01/05 02:50:29;;;;;;;15.83;2.87;;;;;;;1.42;82.67;100137.72;5065912;28;20031;-59
2022/01/05 02:52:54;;;;;;;12.57;2.73;;;;;;;1.37;82.65;100136.47;5059218;28;20028;-59
2022/01/05 02:55:20;;;;;;;14.47;2.80;;;;;;;1.38;82.81;100145.97;5059047;28;20032;-60
2022/01/05 02:57:45;;;;;;;19.43;3.00;;;;;;;1.32;82.85;100144.72;5053462;28;20025;-59
2022/01/05 03:00:13;;;;;;;17.70;3.47;;;;;;;1.32;82.86;100155.16;5050899;28;20036;-59
2022/01/05 03:02:39;;;;;;;12.83;2.57;;;;;;;1.34;83.01;100155.88;5054684;28;20045;-59
2022/01/05 03:05:05;;;;;;;14.33;3.07;;;;;;;1.34;82.64;100155.88;5056409;28;20032;-59
2022/01/05 03:07:32;;;;;;;12.17;2.60;;;;;;;1.36;82.52;100155.75;5059758;28;20024;-59
2022/01/05 03:09:58;;;;;;;13.67;2.90;;;;;;;1.34;82.50;100163.72;5053133;28;20029;-59
2022/01/05 03:12:23;;;;;;;15.77;2.87;;;;;;;1.35;82.47;100170.59;5059034;28;20036;-59
2022/01/05 03:14:48;;;;;;;14.97;2.97;;;;;;;1.33;82.21;100172.53;5059909;28;20031;-59
2022/01/05 03:17:14;;;;;;;15.60;2.83;;;;;;;1.35;82.22;100160.13;5055923;28;20029;-59
2022/01/05 03:19:39;;;;;;;16.93;3.40;;;;;;;1.37;82.06;100181.78;5061305;28;20037;-59
2022/01/05 03:22:04;;;;;;;19.37;3.07;;;;;;;1.37;81.82;100171.31;5057427;28;20032;-59
2022/01/05 03:24:29;;;;;;;13.13;2.80;;;;;;;1.36;81.72;100171.44;5054345;28;20357;-59
2022/01/05 03:26:55;;;;;;;15.07;3.37;;;;;;;1.39;81.51;100179.84;5055458;28;20477;-59
2022/01/05 03:29:20;;;;;;;16.40;2.87;;;;;;;1.44;81.50;100187.31;5059728;28;20044;-59
2022/01/05 03:31:45;;;;;;;15.30;2.70;;;;;;;1.50;81.28;100184.22;5055499;28;20096;-59
2022/01/05 03:34:17;;;;;;;18.90;2.80;;;;;;;1.54;81.33;100183.81;5055461;28;20017;-59
2022/01/05 03:36:42;;;;;;;13.47;2.20;;;;;;;1.63;81.02;100194.47;5057725;28;20060;-59
2022/01/05 03:39:08;;;;;;;16.77;2.70;;;;;;;1.67;80.78;100188.84;5060847;28;20118;-59
2022/01/05 03:41:33;;;;;;;14.40;2.50;;;;;;;1.73;80.33;100188.31;5060302;28;20024;-59
2022/01/05 03:43:59;;;;;;;15.57;3.53;;;;;;;1.74;80.37;100194.41;5058719;28;20108;-59
2022/01/05 03:46:24;;;;;;;13.13;2.70;;;;;;;1.74;80.60;100189.16;5059256;28;20041;-59
2022/01/05 03:48:49;;;;;;;15.23;2.80;;;;;;;1.71;80.45;100198.06;5059420;28;20024;-60
2022/01/05 03:51:14;;;;;;;18.77;2.80;;;;;;;1.72;80.19;100186.66;5059464;28;20032;-60
2022/01/05 03:53:40;;;;;;;15.13;2.60;;;;;;;1.70;80.30;100185.13;5055619;28;20078;-59
2022/01/05 03:56:05;;;;;;;15.33;2.93;;;;;;;1.61;80.36;100181.50;5064232;28;20431;-59
2022/01/05 03:58:30;;;;;;;15.87;3.10;;;;;;;1.63;80.33;100189.22;5057724;28;20029;-59
2022/01/05 04:00:56;;;;;;;19.30;3.03;;;;;;;1.58;80.37;100188.78;5054365;28;20049;-59
2022/01/05 04:03:21;;;;;;;16.93;3.20;;;;;;;1.49;80.29;100201.69;5054036;28;20048;-60
2022/01/05 04:05:46;;;;;;;15.43;2.90;;;;;;;1.50;80.50;100203.34;5059213;28;20216;-60
2022/01/05 04:08:12;;;;;;;14.73;2.80;;;;;;;1.43;80.42;100196.94;5060408;28;20090;-59
2022/01/05 04:10:39;;;;;;;15.53;2.67;;;;;;;1.41;80.60;100208.50;5062192;28;20043;-59
2022/01/05 04:13:04;;;;;;;15.47;3.10;;;;;;;1.37;80.98;100196.63;5062291;28;20029;-60
2022/01/05 04:15:31;;;;;;;18.53;2.97;;;;;;;1.34;81.04;100205.56;5060392;28;20036;-60
2022/01/05 04:17:56;;;;;;;16.73;3.27;;;;;;;1.33;81.14;100203.09;5058533;28;20028;-59
2022/01/05 04:20:21;;;;;;;14.20;2.67;;;;;;;1.33;81.21;100205.69;5063563;28;20051;-60
2022/01/05 04:22:47;;;;;;;16.13;3.20;;;;;;;1.30;81.27;100204.16;5058859;28;20032;-59
2022/01/05 04:25:13;;;;;;;25.33;3.43;;;;;;;1.27;81.42;100212.28;5056127;28;20033;-60
2022/01/05 04:27:38;;;;;;;19.13;3.57;;;;;;;1.24;81.64;100212.53;5054465;28;20082;-60
2022/01/05 04:30:07;;;;;;;19.10;3.23;;;;;;;1.22;81.84;100219.66;5056537;28;20032;-59
2022/01/05 04:32:34;;;;;;;17.73;3.03;;;;;;;1.21;81.80;100210.16;5056442;28;20039;-60
2022/01/05 04:34:59;;;;;;;17.33;2.83;;;;;;;1.20;82.15;100217.19;5059240;28;20021;-60
2022/01/05 04:37:24;;;;;;;17.13;2.83;;;;;;;1.22;82.42;100227.50;5053226;28;20033;-60
2022/01/05 04:39:50;;;;;;;14.77;3.03;;;;;;;1.28;82.51;100229.63;5058444;28;20053;-60
2022/01/05 04:42:15;;;;;;;21.90;3.50;;;;;;;1.32;82.70;100233.63;5062090;28;20089;-59
2022/01/05 04:44:41;;;;;;;15.87;2.63;;;;;;;1.37;83.01;100234.09;5059675;28;20025;-60
2022/01/05 04:47:07;;;;;;;16.87;2.90;;;;;;;1.44;82.93;100231.78;5063222;28;20048;-59
2022/01/05 04:49:33;;;;;;;20.83;2.93;;;;;;;1.51;83.00;100239.03;5061376;28;20025;-60
2022/01/05 04:51:58;;;;;;;19.33;3.40;;;;;;;1.57;82.94;100229.00;5059686;28;20032;-59
2022/01/05 04:54:23;;;;;;;16.07;3.27;;;;;;;1.61;83.02;100233.84;5059804;28;20029;-59
2022/01/05 04:56:48;;;;;;;18.93;3.10;;;;;;;1.65;82.22;100224.78;5055730;28;20033;-59
2022/01/05 04:59:14;;;;;;;15.77;2.70;;;;;;;1.70;82.80;100237.47;5058228;28;20055;-59
2022/01/05 05:01:39;;;;;;;17.10;2.73;;;;;;;1.72;82.79;100238.16;5054145;28;20043;-60
2022/01/05 05:04:04;;;;;;;16.93;3.33;;;;;;;1.74;83.11;100237.09;5053890;28;20028;-60
2022/01/05 05:06:29;;;;;;;21.27;3.33;;;;;;;1.78;82.85;100235.88;5053853;28;20081;-60
2022/01/05 05:08:55;;;;;;;20.00;3.60;;;;;;;1.81;82.90;100242.66;5056290;28;20020;-60
2022/01/05 05:11:20;;;;;;;16.67;3.00;;;;;;;1.84;82.69;100234.53;5057456;28;20032;-59
2022/01/05 05:13:45;;;;;;;21.03;2.97;;;;;;;1.86;82.90;100233.44;5056199;28;20098;-60
2022/01/05 05:16:11;;;;;;;16.43;3.13;;;;;;;1.92;82.86;100239.94;5058660;28;20028;-59
2022/01/05 05:18:36;;;;;;;15.87;3.27;;;;;;;1.92;82.62;100233.88;5057124;28;20381;-60
2022/01/05 05:21:02;;;;;;;19.63;3.60;;;;;;;1.93;82.52;100236.38;5056067;28;20055;-59
2022/01/05 05:23:28;;;;;;;22.10;3.33;;;;;;;1.92;82.89;100218.16;5057938;28;20094;-60
2022/01/05 05:25:53;;;;;;;15.47;2.47;;;;;;;1.92;82.89;100226.84;5061085;28;20063;-59
2022/01/05 05:28:19;;;;;;;22.23;3.50;;;;;;;1.95;82.93;100223.16;5061659;28;20056;-59
2022/01/05 05:30:44;;;;;;;18.53;3.43;;;;;;;1.95;82.81;100229.22;5061051;28;20498;-60
2022/01/05 05:33:10;;;;;;;19.90;3.43;;;;;;;1.95;83.03;100239.69;5053819;28;20098;-60
2022/01/05 05:35:35;;;;;;;19.20;3.30;;;;;;;1.95;83.10;100231.81;5060128;28;20021;-59
2022/01/05 05:38:01;;;;;;;18.40;3.67;;;;;;;1.96;83.11;100235.28;5054957;28;20077;-60
2022/01/05 05:40:26;;;;;;;16.97;3.23;;;;;;;1.99;83.34;100227.97;5059197;28;20027;-60
2022/01/05 05:42:52;;;;;;;19.07;3.20;;;;;;;2.01;83.49;100233.09;5056441;28;20260;-60
2022/01/05 05:45:18;;;;;;;20.97;3.30;;;;;;;2.08;83.31;100244.72;5056501;28;20083;-60
2022/01/05 05:47:43;;;;;;;20.20;3.40;;;;;;;2.16;83.33;100248.34;5055642;28;20101;-60
2022/01/05 05:50:09;;;;;;;16.33;3.33;;;;;;;2.17;83.26;100259.66;5056696;28;20438;-60
2022/01/05 05:52:35;;;;;;;22.37;2.90;;;;;;;2.22;83.35;100246.16;5060009;28;20480;-60
2022/01/05 05:55:00;;;;;;;16.93;3.40;;;;;;;2.24;83.12;100259.94;5055591;28;20024;-60
2022/01/05 05:57:25;;;;;;;24.73;3.80;;;;;;;2.24;83.24;100252.91;5057343;28;20021;-60
2022/01/05 05:59:51;;;;;;;19.97;3.37;;;;;;;2.24;83.32;100250.28;5060905;28;20036;-60
2022/01/05 06:02:16;;;;;;;28.87;3.90;;;;;;;2.27;83.44;100246.59;5055371;28;20033;-60
2022/01/05 06:04:42;;;;;;;15.30;3.23;;;;;;;2.30;83.36;100244.53;5058133;28;20400;-59
2022/01/05 06:07:07;;;;;;;14.53;2.67;;;;;;;2.29;83.36;100236.78;5058865;28;20068;-60
2022/01/05 06:09:32;;;;;;;21.70;3.53;;;;;;;2.23;83.28;100234.72;5061219;28;20017;-59
2022/01/05 06:11:58;;;;;;;16.53;3.20;;;;;;;2.21;83.19;100247.94;5056208;28;20477;-59
2022/01/05 06:14:23;;;;;;;19.53;3.57;;;;;;;2.17;83.03;100251.78;5053038;28;20025;-60
2022/01/05 06:16:48;;;;;;;16.93;3.50;;;;;;;2.21;83.62;100249.72;5053020;28;20082;-60
2022/01/05 06:19:14;;;;;;;18.53;3.47;;;;;;;2.21;83.72;100245.31;5053827;28;20032;-59
2022/01/05 06:21:39;;;;;;;21.50;3.73;;;;;;;2.27;83.77;100250.03;5053323;28;20044;-59
2022/01/05 06:24:04;;;;;;;20.80;4.20;;;;;;;2.35;83.91;100263.31;5061215;28;20493;-59
2022/01/05 06:26:30;;;;;;;20.00;2.93;;;;;;;2.44;83.87;100261.69;5058281;28;20131;-60
2022/01/05 06:28:55;;;;;;;16.47;3.43;;;;;;;2.47;83.97;100262.25;5058124;28;20506;-59
2022/01/05 06:31:20;;;;;;;20.03;3.70;;;;;;;2.52;84.06;100269.72;5060162;28;20035;-60
2022/01/05 06:33:46;;;;;;;19.97;3.30;;;;;;;2.58;83.73;100270.97;5062553;28;20129;-62
2022/01/05 06:36:11;;;;;;;20.77;3.80;;;;;;;2.58;83.90;100263.09;5062746;28;20024;-60
2022/01/05 06:38:36;;;;;;;15.97;3.27;;;;;;;2.60;83.78;100271.66;5057734;28;20227;-60
2022/01/05 06:41:02;;;;;;;24.93;3.90;;;;;;;2.64;84.00;100263.41;5055936;28;20021;-59
2022/01/05 06:43:28;;;;;;;24.13;3.57;;;;;;;2.67;84.02;100265.78;5058026;28;20031;-60
2022/01/05 06:45:53;;;;;;;20.87;3.90;;;;;;;2.74;83.94;100273.91;5054604;28;20021;-59
2022/01/05 06:48:19;;;;;;;25.73;4.47;;;;;;;2.85;83.66;100276.41;5049679;28;20029;-60
2022/01/05 06:50:44;;;;;;;13.73;2.80;;;;;;;2.98;83.41;100281.44;5054903;28;20028;-60
2022/01/05 06:53:09;;;;;;;19.27;3.57;;;;;;;3.03;83.36;100298.41;5053678;28;20056;-60
2022/01/05 06:55:35;;;;;;;19.63;3.47;;;;;;;3.11;83.03;100297.72;5058654;28;20388;-59
2022/01/05 06:58:00;;;;;;;19.13;3.53;;;;;;;3.11;83.05;100309.06;5051240;28;20058;-60
2022/01/05 07:00:26;;;;;;;18.23;3.43;;;;;;;3.19;82.93;100305.78;5053230;28;20385;-60
2022/01/05 07:02:52;;;;;;;15.47;3.83;;;;;;;3.21;82.68;100306.47;5057177;28;20040;-59
2022/01/05 07:05:18;;;;;;;27.87;4.00;;;;;;;3.23;82.35;100309.78;5056003;28;20485;-59
2022/01/05 07:07:43;;;;;;;23.00;4.10;;;;;;;3.30;82.39;100315.31;5057653;28;20025;-60
2022/01/05 07:10:10;;;;;;;15.20;2.90;;;;;;;3.33;81.92;100313.22;5057511;28;20027;-60
2022/01/05 07:12:37;;;;;;;13.40;2.90;;;;;;;3.33;81.98;100310.59;5058459;28;20400;-60
2022/01/05 07:15:03;;;;;;;18.80;3.43;;;;;;;3.37;81.78;100311.16;5052048;28;20488;-60
2022/01/05 07:17:29;;;;;;;16.40;3.30;;;;;;;3.39;81.84;100314.47;5055134;28;20026;-60
2022/01/05 07:19:54;;;;;;;20.30;3.00;;;;;;;3.43;81.72;100321.09;5058298;28;20032;-59
2022/01/05 07:22:19;;;;;;;15.37;3.40;;;;;;;3.41;81.57;100325.66;5060412;28;20495;-60
2022/01/05 07:24:45;;;;;;;18.80;2.87;;;;;;;3.45;81.38;100332.28;5056512;28;20036;-60
2022/01/05 07:27:10;;;;;;;14.83;2.93;;;;;;;3.51;81.37;100334.38;5062155;28;20146;-60
2022/01/05 07:29:35;;;;;;;17.07;3.00;;;;;;;3.47;81.08;100329.53;5058296;28;20388;-59
2022/01/05 07:32:00;;;;;;;14.83;2.90;;;;;;;3.48;81.05;100329.41;5060150;28;20182;-60
2022/01/05 07:34:26;;;;;;;19.57;3.63;;;;;;;3.54;80.80;100336.72;5071112;28;20639;-59
2022/01/05 07:36:51;;;;;;;18.03;3.33;;;;;;;3.58;80.80;100338.13;5058589;28;20099;-60
2022/01/05 07:39:16;;;;;;;16.47;2.67;;;;;;;3.62;80.73;100334.25;5067136;28;20028;-60
2022/01/05 07:41:42;;;;;;;16.37;3.07;;;;;;;3.56;80.70;100337.44;5059150;28;20066;-60
2022/01/05 07:44:07;;;;;;;15.80;2.90;;;;;;;3.60;80.68;100328.31;5057760;28;20028;-59
2022/01/05 07:46:34;;;;;;;14.47;2.83;;;;;;;3.61;80.53;100342.25;5057579;28;20079;-60
2022/01/05 07:48:59;;;;;;;13.57;2.70;;;;;;;3.63;80.86;100353.44;5062866;28;20039;-59
2022/01/05 07:51:24;;;;;;;23.50;3.60;;;;;;;3.61;80.85;100358.84;5064711;28;20017;-58
2022/01/05 07:53:51;;;;;;;16.20;2.70;;;;;;;3.66;80.52;100363.66;5059442;28;20041;-59
2022/01/05 07:56:16;;;;;;;21.53;3.40;;;;;;;3.69;80.75;100366.84;5060674;28;20611;-58
2022/01/05 07:58:42;;;;;;;21.37;3.60;;;;;;;3.69;80.52;100371.28;5060089;28;20114;-60
2022/01/05 08:01:07;;;;;;;21.50;4.13;;;;;;;3.73;80.70;100370.03;5060498;28;20067;-60
2022/01/05 08:03:33;;;;;;;18.43;3.13;;;;;;;3.74;80.76;100388.25;5063507;28;20052;-59
2022/01/05 08:06:02;;;;;;;16.63;3.53;;;;;;;3.77;80.72;100370.59;5056995;28;20029;-60
2022/01/05 08:08:27;;;;;;;22.70;3.03;;;;;;;3.78;80.71;100377.50;5052859;28;20035;-59
2022/01/05 08:10:52;;;;;;;13.20;2.87;;;;;;;3.76;80.33;100388.16;5064475;28;20017;-59
2022/01/05 08:13:18;;;;;;;16.70;3.40;;;;;;;3.77;80.33;100363.56;5058219;28;20411;-60
2022/01/05 08:15:43;;;;;;;14.03;3.20;;;;;;;3.83;80.45;100370.03;5057771;28;20101;-59
2022/01/05 08:18:08;;;;;;;16.40;3.60;;;;;;;3.79;80.38;100361.63;5058809;28;20035;-60
2022/01/05 08:20:33;;;;;;;17.37;2.90;;;;;;;3.80;80.26;100378.19;5057611;28;20056;-59
2022/01/05 08:22:59;;;;;;;17.50;3.20;;;;;;;3.81;80.35;100385.13;5062506;28;20027;-59
2022/01/05 08:25:24;;;;;;;17.83;3.30;;;;;;;3.77;80.21;100389.00;5055193;28;20457;-60
2022/01/05 08:27:49;;;;;;;17.93;3.23;;;;;;;3.77;80.26;100384.56;5057684;28;20039;-59
2022/01/05 08:30:35;;;;;;;18.40;3.23;;;;;;;3.78;80.26;100390.66;5063739;28;20031;-59
2022/01/05 08:33:03;;;;;;;17.83;3.37;;;;;;;3.80;80.39;100393.97;5060096;28;20503;-58
2022/01/05 08:35:29;;;;;;;13.57;3.30;;;;;;;3.79;80.15;100384.41;5059047;28;20091;-59
2022/01/05 08:37:54;;;;;;;17.60;3.00;;;;;;;3.73;80.42;100386.59;5058405;28;20112;-60
2022/01/05 08:40:21;;;;;;;13.53;3.17;;;;;;;3.76;80.45;100385.53;5056496;28;20041;-59
2022/01/05 08:42:48;;;;;;;19.13;3.33;;;;;;;3.73;80.40;100377.91;5064632;28;20430;-59
2022/01/05 08:45:15;;;;;;;13.77;2.90;;;;;;;3.73;80.71;100381.34;5059436;28;20071;-60
2022/01/05 08:47:45;;;;;;;21.07;3.20;;;;;;;3.77;80.54;100384.56;5071891;28;20027;-60
2022/01/05 08:50:11;;;;;;;20.03;3.30;;;;;;;3.83;80.82;100394.50;5053851;28;20029;-58
2022/01/05 08:52:36;;;;;;;15.97;3.17;;;;;;;3.99;80.59;100393.94;5058057;28;20480;-60
2022/01/05 08:55:01;;;;;;;18.33;3.00;;;;;;;4.12;80.67;100399.75;5068087;28;20032;-59
2022/01/05 08:57:27;;;;;;;15.90;2.37;;;;;;;4.24;80.77;100418.81;5050733;28;20063;-59
2022/01/05 08:59:52;;;;;;;16.00;3.17;;;;;;;4.26;80.33;100417.69;5054496;28;20208;-60
2022/01/05 09:02:18;;;;;;;15.43;3.33;;;;;;;4.20;80.32;100406.94;5059160;28;20060;-59
2022/01/05 09:04:44;;;;;;;19.13;3.63;;;;;;;4.12;80.45;100425.19;5060181;28;20024;-59
2022/01/05 09:07:10;;;;;;;23.87;3.60;;;;;;;4.12;80.47;100417.31;5056459;28;20432;-59
2022/01/05 09:09:35;;;;;;;19.03;3.73;;;;;;;4.11;80.67;100413.03;5058498;28;20333;-59
2022/01/05 09:12:00;;;;;;;13.93;2.80;;;;;;;4.10;81.06;100433.22;5058593;28;20020;-59
2022/01/05 09:14:25;;;;;;;19.30;3.50;;;;;;;4.10;81.23;100427.13;5062900;28;20025;-59
2022/01/05 09:16:52;;;;;;;16.93;3.30;;;;;;;4.03;81.58;100426.84;5060527;28;20025;-59
2022/01/05 09:19:18;;;;;;;13.97;3.30;;;;;;;4.04;82.02;100426.69;5054744;28;20120;-60
2022/01/05 09:21:43;;;;;;;15.73;3.67;;;;;;;4.09;81.92;100441.25;5055783;28;20354;-59
2022/01/05 09:24:08;;;;;;;22.87;3.53;;;;;;;4.06;82.49;100438.91;5076690;28;20032;-59
2022/01/05 09:26:33;;;;;;;16.33;3.33;;;;;;;3.97;82.68;100441.38;5057496;28;20102;-59
2022/01/05 09:28:59;;;;;;;17.60;3.20;;;;;;;3.98;82.90;100448.28;5059017;28;20017;-59
2022/01/05 09:31:24;;;;;;;21.13;3.73;;;;;;;4.00;82.86;100450.75;5060124;28;20090;-59
2022/01/05 09:33:49;;;;;;;18.77;3.20;;;;;;;3.96;83.09;100463.34;5061409;28;20021;-59
2022/01/05 09:36:29;;;;;;;18.17;3.50;;;;;;;3.96;83.18;100463.34;5057934;28;20029;-60
2022/01/05 09:41:57;;;;;;;15.43;3.37;;;;;;;4.07;83.01;100456.31;5065432;28;20046;-60
2022/01/05 09:44:29;;;;;;;19.77;3.50;;;;;;;4.03;83.37;100467.06;5065061;28;20410;-59
2022/01/05 09:47:32;;;;;;;19.03;3.60;;;;;;;4.07;83.19;100457.16;5056645;28;20040;-59
2022/01/05 09:50:05;;;;;;;18.80;3.17;;;;;;;4.00;83.51;100475.25;5052815;28;20028;-60
2022/01/05 09:52:32;;;;;;;16.07;2.87;;;;;;;4.03;83.18;100472.34;5055020;28;20397;-59
2022/01/05 09:54:58;;;;;;;16.07;3.07;;;;;;;4.06;83.55;100460.75;5051203;28;20028;-60
2022/01/05 09:57:24;;;;;;;19.37;3.03;;;;;;;4.08;83.72;100464.06;5059299;28;20037;-60
2022/01/05 09:59:51;;;;;;;12.27;2.40;;;;;;;4.16;83.91;100487.03;5058040;28;20370;-59
2022/01/05 10:02:17;;;;;;;14.67;3.30;;;;;;;4.19;83.64;100477.06;5058195;28;20056;-59
2022/01/05 10:04:44;;;;;;;14.17;2.80;;;;;;;4.21;83.63;100484.81;5062779;28;20039;-59
2022/01/05 10:07:10;;;;;;;17.00;3.37;;;;;;;4.24;83.57;100480.09;5050315;28;20515;-59
2022/01/05 10:09:40;;;;;;;17.00;3.60;;;;;;;4.26;83.59;100475.53;5035744;28;20032;-59
2022/01/05 10:12:06;;;;;;;20.07;2.70;;;;;;;4.32;83.43;100490.72;5054487;28;20035;-59
2022/01/05 10:14:32;;;;;;;19.00;3.27;;;;;;;4.40;83.49;100497.94;5061545;28;20032;-59
2022/01/05 10:17:15;;;;;;;21.63;3.30;;;;;;;4.50;83.40;100505.81;5055289;28;20043;-59
2022/01/05 10:19:42;;;;;;;23.67;4.13;;;;;;;4.52;83.35;100486.31;5062298;28;20052;-59
2022/01/05 10:22:32;;;;;;;23.03;3.10;;;;;;;4.59;83.31;100491.81;5054110;28;20036;-58
2022/01/05 10:24:58;;;;;;;25.80;3.63;;;;;;;4.62;82.94;100495.00;5054882;28;20115;-59
2022/01/05 10:27:25;;;;;;;20.07;2.97;;;;;;;4.64;83.12;100494.88;5057707;28;20115;-60
2022/01/05 10:30:07;;;;;;;15.00;3.03;;;;;;;4.67;82.98;100510.38;5063948;28;20044;-59
2022/01/05 10:32:34;;;;;;;15.63;3.00;;;;;;;4.70;82.71;100506.63;5059925;28;20024;-59
2022/01/05 10:35:14;;;;;;;17.00;3.40;;;;;;;4.75;82.48;100504.41;5054257;28;20029;-59
2022/01/05 10:37:42;;;;;;;19.33;4.00;;;;;;;4.74;82.56;100506.22;5051237;28;20499;-59
2022/01/05 10:40:19;;;;;;;17.17;3.37;;;;;;;4.82;82.35;100502.88;5059263;28;20033;-59
2022/01/05 10:42:45;;;;;;;18.80;3.17;;;;;;;4.87;82.18;100517.25;5057960;28;20384;-59
2022/01/05 10:45:14;;;;;;;25.57;2.87;;;;;;;4.93;81.80;100510.63;5055217;28;20477;-60
2022/01/05 10:47:41;;;;;;;19.98;3.70;;;;;;;4.95;81.95;100521.81;5050153;28;20617;-60
2022/01/05 10:50:17;;;;;;;21.60;3.30;;;;;;;4.98;81.92;100530.25;5055122;28;20068;-58
2022/01/05 10:52:51;;;;;;;20.33;2.87;;;;;;;4.97;81.56;100527.78;5049423;28;20034;-59
2022/01/05 10:55:18;;;;;;;19.37;3.17;;;;;;;4.96;81.56;100542.72;5058060;28;20082;-59
2022/01/05 10:58:01;;;;;;;24.27;3.63;;;;;;;4.94;81.32;100535.97;5056507;28;20483;-59
2022/01/05 11:00:38;;;;;;;21.87;3.57;;;;;;;5.04;81.12;100544.66;5057587;28;20028;-59
2022/01/05 11:03:20;;;;;;;17.83;3.03;;;;;;;5.06;81.44;100545.34;5061583;28;20108;-60
2022/01/05 11:06:17;;;;;;;14.73;3.33;;;;;;;5.05;81.69;100562.09;5057157;28;20028;-60
2022/01/05 11:09:00;;;;;;;21.07;3.33;;;;;;;5.13;81.79;100548.22;5058941;28;20017;-60
2022/01/05 11:11:49;;;;;;;17.53;3.83;;;;;;;5.18;81.58;100556.50;5057449;28;20028;-60
2022/01/05 11:14:27;;;;;;;21.35;3.72;;;;;;;5.13;81.80;100556.13;5058866;28;20028;-59
2022/01/05 11:16:53;;;;;;;20.47;3.50;;;;;;;5.20;81.89;100552.78;5058641;28;20036;-60
2022/01/05 11:19:28;;;;;;;19.17;3.23;;;;;;;5.19;81.51;100552.91;5060104;28;20029;-60
2022/01/05 11:22:07;;;;;;;20.23;3.80;;;;;;;5.21;81.55;100561.53;5061135;28;20164;-60
2022/01/05 11:24:39;;;;;;;16.58;2.55;;;;;;;5.27;81.82;100553.88;5055790;28;20032;-60
2022/01/05 11:27:06;;;;;;;22.77;3.80;;;;;;;5.25;81.64;100568.97;5062610;28;20025;-59